ASH weather

Boire Field
Nashua, New Hampshire, United States

Public forecast

Using degrees Fahrenheit for public forecast. Weather courtesy of forecast.io.

METAR (pilot weather report)

Retrieved 2018/07/15 21:56 UTC (29 minutes ago):

KASH 152156Z VRB04KT 10SM SCT040 SCT110 28/22 A2992 RMK AO2 TSE01B04E29 SLP140 T02780217

TAF (pilot weather forecast)

Closest forecast is Manchester Airport, 9.7 nm (18.0 km) NNE. Retrieved 2018/07/15 18:22 UTC (4 hours ago):

TAF KMHT 151720Z 1518/1618 VRB04KT P6SM BKN025 FM160400 00000KT 2SM BR OVC004 FM161200 14003KT P6SM SCT025